Back to Top

Language: 

My Weather Underground Personal Weather Station Historical Data with Graphs...

Delerius Weather Station Historical Data
Daily Summary for July 14, 2017 Units:  Metric    English   Both
« Previous Day
Next Day »
Daily Weekly Monthly Yearly Custom
  High: Low: Average:
Temperature: 19.2 °C 13.3 °C 15.6 °C
Dew Point: 12.6 °C 9.6 °C 10.8 °C
Humidity: 87 % 55 % 74 %
Wind Speed: 24.1 km/h 0 km/h 13.7 km/h
Wind Gust: 46.7 km/h - -
Wind:- - WNW
Pressure: 1020.5 hPa 1015.1 hPa -
Precipitation: 0 mm    
Historical Graphs
 
 
Tabular Data for July 14, 2017
Time Temperature Dew Point Pressure Wind Wind Speed Wind Gust Humidity Rainfall Rate (Hourly) solar Conditions
00:02 16 °C 10.9 °C 1015.5 hPa SW 1.6 km/h 17.7 km/h 72 % 0 mm 0 W/m2
00:07 16.1 °C 11.1 °C 1015.1 hPa WSW 4.8 km/h 17.7 km/h 72 % 0 mm 0 W/m2
00:12 16 °C 10.9 °C 1015.1 hPa West 4.8 km/h 16.1 km/h 72 % 0 mm 0 W/m2
00:17 16.1 °C 11.3 °C 1015.1 hPa West 4.8 km/h 19.3 km/h 73 % 0 mm 0 W/m2
00:22 16.1 °C 11.3 °C 1015.5 hPa West 9.7 km/h 22.5 km/h 73 % 0 mm 0 W/m2
00:27 16.1 °C 11.4 °C 1015.1 hPa West 12.9 km/h 22.5 km/h 74 % 0 mm 0 W/m2
00:32 16.1 °C 11.7 °C 1015.1 hPa West 14.5 km/h 25.7 km/h 75 % 0 mm 0 W/m2
00:37 16 °C 11.9 °C 1015.1 hPa West 17.7 km/h 37 km/h 77 % 0 mm 0 W/m2
00:42 15.9 °C 12.3 °C 1015.1 hPa West 17.7 km/h 37 km/h 79 % 0 mm 0 W/m2
00:47 15.7 °C 12.3 °C 1015.1 hPa West 16.1 km/h 25.7 km/h 80 % 0 mm 0 W/m2
00:52 15.6 °C 12.6 °C 1015.1 hPa West 14.5 km/h 24.1 km/h 82 % 0 mm 0 W/m2
00:57 15.4 °C 12.3 °C 1015.5 hPa West 16.1 km/h 33.8 km/h 82 % 0 mm 0 W/m2
01:02 15.3 °C 12.4 °C 1015.5 hPa West 17.7 km/h 33.8 km/h 83 % 0 mm 0 W/m2
01:07 15.2 °C 12.5 °C 1015.5 hPa West 14.5 km/h 25.7 km/h 84 % 0 mm 0 W/m2
01:08 15.2 °C 12.5 °C 1015.5 hPa West 14.5 km/h 25.7 km/h 84 % 0 mm 0 W/m2
01:13 15 °C 12.5 °C 1015.5 hPa West 12.9 km/h 24.1 km/h 85 % 0 mm 0 W/m2
01:18 14.8 °C 12.5 °C 1015.5 hPa West 12.9 km/h 20.9 km/h 86 % 0 mm 0 W/m2
01:23 14.8 °C 12.5 °C 1015.5 hPa West 9.7 km/h 20.9 km/h 86 % 0 mm 0 W/m2
01:28 14.7 °C 12.4 °C 1015.5 hPa West 9.7 km/h 17.7 km/h 86 % 0 mm 0 W/m2
01:33 14.7 °C 12.6 °C 1015.5 hPa WSW 8 km/h 14.5 km/h 87 % 0 mm 0 W/m2
01:38 14.7 °C 12.6 °C 1015.5 hPa WSW 6.4 km/h 14.5 km/h 87 % 0 mm 0 W/m2
01:43 14.7 °C 12.6 °C 1015.5 hPa West 4.8 km/h 9.7 km/h 87 % 0 mm 0 W/m2
01:48 14.7 °C 12.6 °C 1015.1 hPa West 1.6 km/h 8 km/h 87 % 0 mm 0 W/m2
01:53 14.7 °C 12.6 °C 1015.1 hPa West 1.6 km/h 8 km/h 87 % 0 mm 0 W/m2
01:58 14.7 °C 12.6 °C 1015.1 hPa West 1.6 km/h 6.4 km/h 87 % 0 mm 0 W/m2
02:03 14.7 °C 12.6 °C 1015.1 hPa Calm   6.4 km/h 87 % 0 mm 0 W/m2
02:08 14.7 °C 12.6 °C 1015.1 hPa Calm     87 % 0 mm 0 W/m2
02:13 14.7 °C 12.6 °C 1015.1 hPa Calm   3.2 km/h 87 % 0 mm 0 W/m2
02:18 14.7 °C 12.6 °C 1015.1 hPa Calm   3.2 km/h 87 % 0 mm 0 W/m2
02:23 14.7 °C 12.4 °C 1015.1 hPa Calm   8 km/h 86 % 0 mm 0 W/m2
02:28 14.7 °C 12.6 °C 1015.1 hPa NW 1.6 km/h 11.3 km/h 87 % 0 mm 0 W/m2
02:33 14.7 °C 12.6 °C 1015.5 hPa NW 6.4 km/h 17.7 km/h 87 % 0 mm 0 W/m2
02:38 14.7 °C 12.6 °C 1015.5 hPa WNW 9.7 km/h 17.7 km/h 87 % 0 mm 0 W/m2
02:43 14.6 °C 12.4 °C 1015.5 hPa WNW 9.7 km/h 19.3 km/h 87 % 0 mm 0 W/m2
02:48 14.6 °C 12.1 °C 1015.5 hPa WNW 11.3 km/h 24.1 km/h 85 % 0 mm 0 W/m2
02:53 14.4 °C 11.7 °C 1015.5 hPa WNW 12.9 km/h 24.1 km/h 84 % 0 mm 0 W/m2
02:58 14.4 °C 11.6 °C 1015.5 hPa WNW 12.9 km/h 22.5 km/h 83 % 0 mm 0 W/m2
03:03 14.3 °C 11.4 °C 1015.5 hPa WNW 12.9 km/h 20.9 km/h 83 % 0 mm 0 W/m2
03:08 14.3 °C 11.4 °C 1015.5 hPa WNW 12.9 km/h 24.1 km/h 83 % 0 mm 0 W/m2
03:13 14.2 °C 11.3 °C 1015.5 hPa WNW 12.9 km/h 24.1 km/h 83 % 0 mm 0 W/m2
03:18 14.1 °C 11.4 °C 1015.5 hPa WNW 11.3 km/h 19.3 km/h 84 % 0 mm 0 W/m2
03:24 13.9 °C 11.2 °C 1015.5 hPa WNW 12.9 km/h 20.9 km/h 84 % 0 mm 0 W/m2
03:29 13.9 °C 11.4 °C 1015.5 hPa WNW 12.9 km/h 20.9 km/h 85 % 0 mm 0 W/m2
03:34 13.9 °C 11.4 °C 1015.1 hPa WNW 12.9 km/h 22.5 km/h 85 % 0 mm 0 W/m2
03:39 13.8 °C 11.3 °C 1015.5 hPa WNW 12.9 km/h 22.5 km/h 85 % 0 mm 0 W/m2
03:44 13.8 °C 11.3 °C 1015.5 hPa WNW 12.9 km/h 24.1 km/h 85 % 0 mm 0 W/m2
03:49 13.8 °C 11.2 °C 1015.5 hPa WNW 12.9 km/h 24.1 km/h 84 % 0 mm 0 W/m2
03:54 13.8 °C 11.2 °C 1015.5 hPa WNW 12.9 km/h 19.3 km/h 84 % 0 mm 0 W/m2
03:59 13.9 °C 11.2 °C 1015.5 hPa WNW 12.9 km/h 22.5 km/h 84 % 0 mm 0 W/m2
04:04 13.9 °C 11.2 °C 1015.5 hPa WNW 12.9 km/h 24.1 km/h 84 % 0 mm 0 W/m2
04:09 13.9 °C 11.2 °C 1015.5 hPa WNW 12.9 km/h 24.1 km/h 84 % 0 mm 0 W/m2
04:14 13.8 °C 11.2 °C 1015.5 hPa WNW 12.9 km/h 29 km/h 84 % 0 mm 0 W/m2
04:19 13.8 °C 11.2 °C 1015.5 hPa WNW 14.5 km/h 29 km/h 84 % 0 mm 0 W/m2
04:24 13.7 °C 11.1 °C 1015.5 hPa WNW 14.5 km/h 25.7 km/h 84 % 0 mm 0 W/m2
04:29 13.7 °C 11.1 °C 1015.8 hPa WNW 14.5 km/h 25.7 km/h 84 % 0 mm 0 W/m2
04:34 13.7 °C 11.1 °C 1015.8 hPa WNW 14.5 km/h 24.1 km/h 84 % 0 mm 0 W/m2
04:39 13.7 °C 11.1 °C 1015.8 hPa WNW 12.9 km/h 22.5 km/h 84 % 0 mm 0 W/m2
04:44 13.7 °C 11.1 °C 1015.8 hPa WNW 12.9 km/h 20.9 km/h 84 % 0 mm 0 W/m2
04:49 13.7 °C 11.1 °C 1015.8 hPa WNW 11.3 km/h 20.9 km/h 84 % 0 mm 0 W/m2
04:54 13.6 °C 10.9 °C 1015.8 hPa WNW 11.3 km/h 20.9 km/h 84 % 0 mm 0 W/m2
04:59 13.6 °C 10.9 °C 1015.8 hPa WNW 11.3 km/h 20.9 km/h 84 % 0 mm 0 W/m2
05:04 13.6 °C 10.9 °C 1015.8 hPa WNW 12.9 km/h 22.5 km/h 84 % 0 mm 5 W/m2
05:09 13.6 °C 10.9 °C 1015.8 hPa WNW 12.9 km/h 22.5 km/h 84 % 0 mm 7 W/m2
05:14 13.6 °C 10.9 °C 1016.1 hPa WNW 11.3 km/h 19.3 km/h 84 % 0 mm 7 W/m2
05:19 13.6 °C 10.9 °C 1016.1 hPa WNW 12.9 km/h 22.5 km/h 84 % 0 mm 9 W/m2
05:24 13.6 °C 10.9 °C 1016.1 hPa WNW 12.9 km/h 22.5 km/h 84 % 0 mm 9 W/m2
05:29 13.6 °C 10.9 °C 1016.1 hPa WNW 9.7 km/h 19.3 km/h 84 % 0 mm 9 W/m2
05:34 13.6 °C 10.9 °C 1016.1 hPa WNW 8 km/h 16.1 km/h 84 % 0 mm 9 W/m2
05:39 13.7 °C 11.2 °C 1016.1 hPa WNW 9.7 km/h 16.1 km/h 85 % 0 mm 11 W/m2
05:44 13.6 °C 11.1 °C 1016.1 hPa WNW 9.7 km/h 16.1 km/h 85 % 0 mm 12 W/m2
05:49 13.6 °C 11.3 °C 1016.1 hPa WNW 9.7 km/h 16.1 km/h 86 % 0 mm 12 W/m2
05:54 13.5 °C 11.2 °C 1016.1 hPa WNW 6.4 km/h 14.5 km/h 86 % 0 mm 12 W/m2
05:59 13.5 °C 11.2 °C 1016.5 hPa WNW 6.4 km/h 14.5 km/h 86 % 0 mm 11 W/m2
06:04 13.5 °C 11.2 °C 1016.5 hPa WNW 6.4 km/h 14.5 km/h 86 % 0 mm 14 W/m2
06:09 13.5 °C 11.2 °C 1016.5 hPa NW 3.2 km/h 9.7 km/h 86 % 0 mm 19 W/m2
06:14 13.4 °C 11.1 °C 1016.1 hPa NNW 4.8 km/h 9.7 km/h 86 % 0 mm 18 W/m2
06:19 13.4 °C 11.1 °C 1016.1 hPa NNW 3.2 km/h 9.7 km/h 86 % 0 mm 25 W/m2
06:24 13.4 °C 11.1 °C 1016.1 hPa WNW 4.8 km/h 9.7 km/h 86 % 0 mm 35 W/m2
06:30 13.4 °C 11.1 °C 1016.1 hPa WNW 3.2 km/h 9.7 km/h 86 % 0 mm 53 W/m2
06:35 13.4 °C 11.1 °C 1016.1 hPa WNW 3.2 km/h 16.1 km/h 86 % 0 mm 74 W/m2
06:40 13.6 °C 11.3 °C 1016.1 hPa WNW 6.4 km/h 16.1 km/h 86 % 0 mm 56 W/m2
06:45 13.6 °C 11.1 °C 1016.1 hPa WNW 6.4 km/h 14.5 km/h 85 % 0 mm 58 W/m2
06:50 13.7 °C 11.1 °C 1016.1 hPa WNW 8 km/h 14.5 km/h 84 % 0 mm 58 W/m2
06:55 13.7 °C 10.9 °C 1016.1 hPa WNW 8 km/h 19.3 km/h 83 % 0 mm 69 W/m2
07:00 13.8 °C 10.9 °C 1016.1 hPa WNW 11.3 km/h 24.1 km/h 83 % 0 mm 76 W/m2
07:05 13.8 °C 10.8 °C 1016.1 hPa WNW 12.9 km/h 24.1 km/h 82 % 0 mm 74 W/m2
07:10 13.9 °C 10.9 °C 1016.1 hPa WNW 12.9 km/h 25.7 km/h 82 % 0 mm 70 W/m2
07:15 13.9 °C 10.9 °C 1016.5 hPa WNW 14.5 km/h 25.7 km/h 82 % 0 mm 44 W/m2
07:20 13.8 °C 11.2 °C 1016.5 hPa WNW 14.5 km/h 24.1 km/h 84 % 0 mm 40 W/m2
07:25 13.7 °C 11.2 °C 1016.8 hPa WNW 12.9 km/h 22.5 km/h 85 % 0 mm 88 W/m2
07:30 13.5 °C 11.2 °C 1016.8 hPa WNW 14.5 km/h 29 km/h 86 % 0 mm 113 W/m2
07:35 13.3 °C 11 °C 1016.5 hPa NW 12.9 km/h 29 km/h 86 % 0 mm 109 W/m2
07:40 13.3 °C 11 °C 1016.5 hPa NW 9.7 km/h 22.5 km/h 86 % 0 mm 118 W/m2
07:45 13.3 °C 11 °C 1016.5 hPa WNW 9.7 km/h 19.3 km/h 86 % 0 mm 120 W/m2
07:50 13.3 °C 11 °C 1016.8 hPa WNW 11.3 km/h 19.3 km/h 86 % 0 mm 139 W/m2
07:55 13.4 °C 10.9 °C 1016.8 hPa WNW 9.7 km/h 17.7 km/h 85 % 0 mm 213 W/m2
08:00 13.6 °C 11.1 °C 1016.8 hPa WNW 11.3 km/h 24.1 km/h 85 % 0 mm 146 W/m2
08:05 13.7 °C 11.1 °C 1016.8 hPa WNW 12.9 km/h 24.1 km/h 84 % 0 mm 160 W/m2
08:10 13.8 °C 10.9 °C 1016.8 hPa WNW 14.5 km/h 32.2 km/h 83 % 0 mm 193 W/m2
08:15 13.9 °C 10.9 °C 1016.8 hPa WNW 16.1 km/h 32.2 km/h 82 % 0 mm 218 W/m2
08:20 14 °C 10.8 °C 1016.8 hPa WNW 17.7 km/h 32.2 km/h 81 % 0 mm 250 W/m2
08:25 14.1 °C 10.7 °C 1016.8 hPa WNW 17.7 km/h 32.2 km/h 80 % 0 mm 190 W/m2
08:30 14.2 °C 10.6 °C 1016.8 hPa WNW 17.7 km/h 32.2 km/h 79 % 0 mm 257 W/m2
08:35 14.4 °C 10.8 °C 1016.8 hPa WNW 16.1 km/h 25.7 km/h 79 % 0 mm 285 W/m2
08:40 14.6 °C 11 °C 1016.8 hPa WNW 14.5 km/h 25.7 km/h 79 % 0 mm 341 W/m2
08:45 14.9 °C 10.9 °C 1016.8 hPa WNW 12.9 km/h 22.5 km/h 77 % 0 mm 237 W/m2
08:50 15.1 °C 10.9 °C 1017.2 hPa NW 12.9 km/h 24.1 km/h 76 % 0 mm 251 W/m2
08:55 15.1 °C 10.7 °C 1017.2 hPa NW 14.5 km/h 25.7 km/h 75 % 0 mm 278 W/m2
09:00 15.2 °C 10.8 °C 1017.2 hPa WNW 16.1 km/h 25.7 km/h 75 % 0 mm 229 W/m2
09:05 15.2 °C 10.8 °C 1017.2 hPa WNW 14.5 km/h 29 km/h 75 % 0 mm 218 W/m2
09:10 15.2 °C 10.6 °C 1017.2 hPa WNW 14.5 km/h 29 km/h 74 % 0 mm 218 W/m2
09:15 15.2 °C 10.6 °C 1017.2 hPa WNW 16.1 km/h 30.6 km/h 74 % 0 mm 278 W/m2
09:20 15.3 °C 10.5 °C 1017.2 hPa WNW 16.1 km/h 30.6 km/h 73 % 0 mm 401 W/m2
09:25 15.4 °C 10.6 °C 1017.2 hPa WNW 16.1 km/h 29 km/h 73 % 0 mm 288 W/m2
09:30 15.7 °C 10.7 °C 1017.2 hPa WNW 14.5 km/h 25.7 km/h 72 % 0 mm 181 W/m2
09:35 15.6 °C 10.3 °C 1017.5 hPa WNW 16.1 km/h 32.2 km/h 71 % 0 mm 185 W/m2
09:40 15.4 °C 10.4 °C 1017.5 hPa WNW 17.7 km/h 32.2 km/h 72 % 0 mm 167 W/m2
09:45 15.3 °C 10.5 °C 1017.5 hPa WNW 16.1 km/h 29 km/h 73 % 0 mm 221 W/m2
09:50 15.3 °C 10.7 °C 1017.5 hPa West 16.1 km/h 25.7 km/h 74 % 0 mm 211 W/m2
09:55 15.3 °C 10.7 °C 1017.5 hPa West 14.5 km/h 25.7 km/h 74 % 0 mm 225 W/m2
10:00 15.3 °C 10.7 °C 1017.5 hPa WNW 14.5 km/h 22.5 km/h 74 % 0 mm 251 W/m2
10:05 15.3 °C 10.7 °C 1017.5 hPa WNW 16.1 km/h 30.6 km/h 74 % 0 mm 271 W/m2
10:10 15.3 °C 10.5 °C 1017.5 hPa WNW 19.3 km/h 32.2 km/h 73 % 0 mm 383 W/m2
10:15 15.5 °C 10.4 °C 1017.5 hPa WNW 19.3 km/h 32.2 km/h 72 % 0 mm 469 W/m2
10:20 15.7 °C 10.2 °C 1017.5 hPa WNW 20.9 km/h 38.6 km/h 70 % 0 mm 285 W/m2
10:25 15.7 °C 10.4 °C 1017.8 hPa WNW 20.9 km/h 38.6 km/h 71 % 0 mm 320 W/m2
10:30 15.7 °C 10.4 °C 1017.8 hPa WNW 20.9 km/h 35.4 km/h 71 % 0 mm 295 W/m2
10:32 15.6 °C 10.3 °C 1017.8 hPa WNW 20.9 km/h 35.4 km/h 71 % 0 mm 283 W/m2
10:37 15.6 °C 10.3 °C 1017.8 hPa WNW 19.3 km/h 33.8 km/h 71 % 0 mm 294 W/m2
10:42 15.6 °C 10.3 °C 1017.8 hPa WNW 17.7 km/h 33.8 km/h 71 % 0 mm 288 W/m2
10:47 15.6 °C 10.6 °C 1017.8 hPa WNW 17.7 km/h 33.8 km/h 72 % 0 mm 329 W/m2
10:52 15.7 °C 10.7 °C 1017.8 hPa WNW 16.1 km/h 29 km/h 72 % 0 mm 501 W/m2
10:57 15.9 °C 10.8 °C 1017.8 hPa WNW 14.5 km/h 24.1 km/h 72 % 0 mm 390 W/m2
11:02 16.1 °C 10.8 °C 1017.8 hPa WNW 12.9 km/h 25.7 km/h 71 % 0 mm 299 W/m2
11:07 16.1 °C 10.6 °C 1017.8 hPa WNW 16.1 km/h 30.6 km/h 70 % 0 mm 381 W/m2
11:12 16.3 °C 11.1 °C 1018.2 hPa WNW 16.1 km/h 30.6 km/h 71 % 0 mm 441 W/m2
11:17 16.5 °C 11 °C 1018.2 hPa WNW 12.9 km/h 24.1 km/h 70 % 0 mm 399 W/m2
11:19 16.5 °C 10.6 °C 1017.8 hPa WNW 14.5 km/h 25.7 km/h 68 % 0 mm 404 W/m2
11:24 16.7 °C 10.8 °C 1018.2 hPa WNW 16.1 km/h 33.8 km/h 68 % 0 mm 443 W/m2
11:29 16.7 °C 10.6 °C 1018.2 hPa WNW 17.7 km/h 33.8 km/h 67 % 0 mm 376 W/m2
11:34 16.7 °C 10.3 °C 1018.2 hPa WNW 19.3 km/h 33.8 km/h 66 % 0 mm 332 W/m2
11:39 16.7 °C 10.6 °C 1018.2 hPa WNW 19.3 km/h 33.8 km/h 67 % 0 mm 264 W/m2
11:44 16.5 °C 10.1 °C 1018.2 hPa WNW 20.9 km/h 40.2 km/h 66 % 0 mm 237 W/m2
11:49 16.3 °C 9.9 °C 1018.2 hPa WNW 20.9 km/h 40.2 km/h 66 % 0 mm 229 W/m2
11:54 16.1 °C 9.9 °C 1018.2 hPa WNW 19.3 km/h 33.8 km/h 67 % 0 mm 288 W/m2
11:59 16.1 °C 10.2 °C 1018.2 hPa WNW 17.7 km/h 33.8 km/h 68 % 0 mm 218 W/m2
12:04 16.1 °C 10.2 °C 1018.5 hPa WNW 16.1 km/h 29 km/h 68 % 0 mm 179 W/m2
12:07 16.1 °C 9.9 °C 1018.5 hPa WNW 17.7 km/h 35.4 km/h 67 % 0 mm 183 W/m2
12:12 15.8 °C 9.9 °C 1018.5 hPa WNW 20.9 km/h 40.2 km/h 68 % 0 mm 185 W/m2
12:17 15.7 °C 10 °C 1018.5 hPa WNW 19.3 km/h 40.2 km/h 69 % 0 mm 348 W/m2
12:22 15.8 °C 10.1 °C 1018.5 hPa WNW 16.1 km/h 32.2 km/h 69 % 0 mm 348 W/m2
12:27 16 °C 10.1 °C 1018.5 hPa WNW 16.1 km/h 32.2 km/h 68 % 0 mm 332 W/m2
12:33 16.2 °C 10.3 °C 1018.5 hPa WNW 16.1 km/h 25.7 km/h 68 % 0 mm 329 W/m2
12:38 16.3 °C 10.2 °C 1018.5 hPa WNW 16.1 km/h 29 km/h 67 % 0 mm 315 W/m2
12:43 16.5 °C 10.1 °C 1018.5 hPa WNW 17.7 km/h 33.8 km/h 66 % 0 mm 411 W/m2
12:48 16.7 °C 10.3 °C 1018.5 hPa WNW 19.3 km/h 35.4 km/h 66 % 0 mm 543 W/m2
12:53 16.9 °C 10.3 °C 1018.5 hPa WNW 19.3 km/h 35.4 km/h 65 % 0 mm 626 W/m2
12:58 17.3 °C 10.7 °C 1018.5 hPa WNW 17.7 km/h 32.2 km/h 65 % 0 mm 443 W/m2
13:03 17.6 °C 10.4 °C 1018.8 hPa WNW 17.7 km/h 41.8 km/h 63 % 0 mm 527 W/m2
13:08 17.5 °C 9.7 °C 1018.8 hPa WNW 22.5 km/h 41.8 km/h 60 % 0 mm 524 W/m2
13:13 17.4 °C 9.6 °C 1018.8 hPa WNW 22.5 km/h 41.8 km/h 60 % 0 mm 404 W/m2
13:18 17.4 °C 10.1 °C 1018.8 hPa WNW 20.9 km/h 37 km/h 62 % 0 mm 432 W/m2
13:23 17.4 °C 10.3 °C 1018.8 hPa WNW 17.7 km/h 33.8 km/h 63 % 0 mm 432 W/m2
13:28 17.4 °C 10.5 °C 1018.8 hPa WNW 17.7 km/h 35.4 km/h 64 % 0 mm 394 W/m2
13:33 17.4 °C 11 °C 1018.8 hPa WNW 19.3 km/h 35.4 km/h 66 % 0 mm 432 W/m2
13:38 17.8 °C 10.7 °C 1018.8 hPa WNW 17.7 km/h 32.2 km/h 63 % 0 mm 1218 W/m2
13:43 18.1 °C 10.4 °C 1018.8 hPa WNW 20.9 km/h 37 km/h 61 % 0 mm 580 W/m2
13:48 18.1 °C 10.2 °C 1018.8 hPa WNW 20.9 km/h 37 km/h 60 % 0 mm 443 W/m2
13:53 17.8 °C 10.2 °C 1018.8 hPa WNW 19.3 km/h 33.8 km/h 61 % 0 mm 390 W/m2
13:58 17.8 °C 10.2 °C 1018.8 hPa WNW 19.3 km/h 35.4 km/h 61 % 0 mm 323 W/m2
14:03 17.7 °C 10.3 °C 1019.2 hPa WNW 17.7 km/h 35.4 km/h 62 % 0 mm 244 W/m2
14:08 17.6 °C 10.2 °C 1019.2 hPa WNW 16.1 km/h 35.4 km/h 62 % 0 mm 200 W/m2
14:13 17.3 °C 10.4 °C 1019.2 hPa West 16.1 km/h 29 km/h 64 % 0 mm 195 W/m2
14:18 17.2 °C 10.8 °C 1019.2 hPa WNW 16.1 km/h 30.6 km/h 66 % 0 mm 408 W/m2
14:23 17.3 °C 10.9 °C 1019.2 hPa WNW 16.1 km/h 30.6 km/h 66 % 0 mm 345 W/m2
14:28 17.3 °C 10.7 °C 1019.2 hPa WNW 17.7 km/h 32.2 km/h 65 % 0 mm 123 W/m2
14:33 17.1 °C 10.7 °C 1019.2 hPa WNW 19.3 km/h 37 km/h 66 % 0 mm 204 W/m2
14:38 16.8 °C 10.8 °C 1019.2 hPa WNW 17.7 km/h 37 km/h 68 % 0 mm 329 W/m2
14:43 17 °C 11.1 °C 1019.2 hPa WNW 16.1 km/h 30.6 km/h 68 % 0 mm 378 W/m2
14:48 17.2 °C 11 °C 1019.2 hPa WNW 14.5 km/h 25.7 km/h 67 % 0 mm 492 W/m2
14:53 17.5 °C 11.1 °C 1019.2 hPa WNW 16.1 km/h 38.6 km/h 66 % 0 mm 353 W/m2
14:58 17.6 °C 10.7 °C 1019.2 hPa WNW 19.3 km/h 38.6 km/h 64 % 0 mm 429 W/m2
14:59 17.6 °C 10.7 °C 1019.2 hPa WNW 20.9 km/h 38.6 km/h 64 % 0 mm 429 W/m2
15:04 17.8 °C 10.7 °C 1019.2 hPa WNW 19.3 km/h 35.4 km/h 63 % 0 mm 378 W/m2
15:09 17.8 °C 10.7 °C 1019.2 hPa WNW 17.7 km/h 33.8 km/h 63 % 0 mm 315 W/m2
15:14 17.7 °C 10.3 °C 1019.2 hPa WNW 20.9 km/h 38.6 km/h 62 % 0 mm 265 W/m2
15:19 17.6 °C 10.2 °C 1019.2 hPa WNW 22.5 km/h 38.6 km/h 62 % 0 mm 329 W/m2
15:24 17.5 °C 10.4 °C 1019.2 hPa WNW 22.5 km/h 38.6 km/h 63 % 0 mm 884 W/m2
15:29 17.9 °C 10.8 °C 1019.2 hPa WNW 20.9 km/h 37 km/h 63 % 0 mm 875 W/m2
15:34 18.4 °C 10.5 °C 1019.2 hPa West 19.3 km/h 33.8 km/h 60 % 0 mm 805 W/m2
15:39 18.6 °C 10.4 °C 1019.2 hPa West 19.3 km/h 37 km/h 59 % 0 mm 796 W/m2
15:44 18.8 °C 10.6 °C 1019.2 hPa WNW 20.9 km/h 37 km/h 59 % 0 mm 784 W/m2
15:49 18.9 °C 10.4 °C 1019.2 hPa WNW 22.5 km/h 40.2 km/h 58 % 0 mm 773 W/m2
15:54 18.8 °C 10.6 °C 1019.2 hPa West 22.5 km/h 40.2 km/h 59 % 0 mm 816 W/m2
15:59 18.7 °C 10.8 °C 1019.2 hPa West 22.5 km/h 38.6 km/h 60 % 0 mm 759 W/m2
16:04 18.6 °C 10.7 °C 1019.2 hPa West 24.1 km/h 38.6 km/h 60 % 0 mm 756 W/m2
16:09 18.6 °C 10.7 °C 1019.2 hPa West 24.1 km/h 38.6 km/h 60 % 0 mm 747 W/m2
16:14 18.7 °C 10.5 °C 1019.2 hPa West 22.5 km/h 46.7 km/h 59 % 0 mm 724 W/m2
16:19 18.8 °C 10.6 °C 1019.2 hPa WNW 22.5 km/h 46.7 km/h 59 % 0 mm 708 W/m2
16:24 18.9 °C 10.7 °C 1019.2 hPa WNW 19.3 km/h 37 km/h 59 % 0 mm 708 W/m2
16:29 19 °C 10.6 °C 1019.2 hPa West 19.3 km/h 33.8 km/h 58 % 0 mm 715 W/m2
16:34 18.9 °C 10.4 °C 1019.2 hPa West 20.9 km/h 33.8 km/h 58 % 0 mm 742 W/m2
16:39 19 °C 10 °C 1019.2 hPa West 20.9 km/h 37 km/h 56 % 0 mm 679 W/m2
16:44 19.1 °C 10.7 °C 1019.2 hPa WNW 20.9 km/h 37 km/h 58 % 0 mm 591 W/m2
16:49 19.1 °C 9.8 °C 1019.2 hPa WNW 20.9 km/h 37 km/h 55 % 0 mm 598 W/m2
16:54 19.2 °C 10.4 °C 1019.2 hPa WNW 20.9 km/h 37 km/h 57 % 0 mm 533 W/m2
16:59 19.2 °C 10.2 °C 1019.2 hPa WNW 20.9 km/h 38.6 km/h 56 % 0 mm 573 W/m2
17:04 19 °C 10.3 °C 1019.2 hPa WNW 22.5 km/h 38.6 km/h 57 % 0 mm 515 W/m2
17:09 18.8 °C 10.3 °C 1019.2 hPa WNW 22.5 km/h 37 km/h 58 % 0 mm 566 W/m2
17:14 18.8 °C 10.6 °C 1019.2 hPa WNW 20.9 km/h 33.8 km/h 59 % 0 mm 545 W/m2
17:19 18.8 °C 10.6 °C 1019.2 hPa WNW 19.3 km/h 33.8 km/h 59 % 0 mm 541 W/m2
17:24 18.8 °C 10.6 °C 1019.2 hPa WNW 19.3 km/h 35.4 km/h 59 % 0 mm 499 W/m2
17:29 18.8 °C 10.6 °C 1019.2 hPa WNW 19.3 km/h 35.4 km/h 59 % 0 mm 512 W/m2
17:35 18.8 °C 10.6 °C 1019.2 hPa West 19.3 km/h 35.4 km/h 59 % 0 mm 496 W/m2
17:40 18.7 °C 10.5 °C 1019.2 hPa WNW 20.9 km/h 33.8 km/h 59 % 0 mm 483 W/m2
17:45 18.7 °C 10.5 °C 1019.2 hPa WNW 22.5 km/h 37 km/h 59 % 0 mm 473 W/m2
17:50 18.4 °C 10.5 °C 1019.2 hPa WNW 24.1 km/h 37 km/h 60 % 0 mm 466 W/m2
17:55 18.3 °C 10.9 °C 1019.2 hPa WNW 20.9 km/h 35.4 km/h 62 % 0 mm 445 W/m2
18:00 18.3 °C 10.4 °C 1019.2 hPa WNW 20.9 km/h 37 km/h 60 % 0 mm 396 W/m2
18:05 18.3 °C 10.4 °C 1019.2 hPa WNW 20.9 km/h 37 km/h 60 % 0 mm 315 W/m2
18:10 18.3 °C 10.7 °C 1019.2 hPa WNW 19.3 km/h 35.4 km/h 61 % 0 mm 281 W/m2
18:15 18.3 °C 10.7 °C 1019.2 hPa WNW 16.1 km/h 25.7 km/h 61 % 0 mm 355 W/m2
18:20 18.3 °C 10.7 °C 1019.2 hPa WNW 17.7 km/h 29 km/h 61 % 0 mm 454 W/m2
18:25 18.4 °C 10.2 °C 1019.2 hPa West 19.3 km/h 37 km/h 59 % 0 mm 422 W/m2
18:30 18.2 °C 10.3 °C 1019.5 hPa West 19.3 km/h 37 km/h 60 % 0 mm 316 W/m2
18:35 18.1 °C 10.2 °C 1019.5 hPa West 16.1 km/h 32.2 km/h 60 % 0 mm 156 W/m2
18:40 17.9 °C 9.8 °C 1019.5 hPa WNW 14.5 km/h 29 km/h 59 % 0 mm 128 W/m2
18:45 17.6 °C 9.7 °C 1019.5 hPa WNW 17.7 km/h 32.2 km/h 60 % 0 mm 146 W/m2
18:50 17.3 °C 9.7 °C 1019.2 hPa WNW 19.3 km/h 32.2 km/h 61 % 0 mm 158 W/m2
18:55 17.2 °C 10.1 °C 1019.5 hPa WNW 17.7 km/h 35.4 km/h 63 % 0 mm 125 W/m2
18:56 17.2 °C 10.1 °C 1019.5 hPa WNW 17.7 km/h 35.4 km/h 63 % 0 mm 120 W/m2
19:01 17.1 °C 10 °C 1019.5 hPa WNW 16.1 km/h 35.4 km/h 63 % 0 mm 113 W/m2
19:06 16.9 °C 10.1 °C 1019.5 hPa WNW 16.1 km/h 29 km/h 64 % 0 mm 105 W/m2
19:11 16.8 °C 10.2 °C 1019.5 hPa West 16.1 km/h 29 km/h 65 % 0 mm 100 W/m2
19:14 16.7 °C 10.3 °C 1019.5 hPa West 16.1 km/h 29 km/h 66 % 0 mm 95 W/m2
19:19 16.6 °C 10.2 °C 1019.2 hPa West 14.5 km/h 25.7 km/h 66 % 0 mm 90 W/m2
19:24 16.5 °C 10.1 °C 1019.2 hPa West 16.1 km/h 25.7 km/h 66 % 0 mm 81 W/m2
19:29 16.4 °C 10.1 °C 1019.5 hPa West 14.5 km/h 25.7 km/h 66 % 0 mm 77 W/m2
19:34 16.3 °C 9.9 °C 1019.5 hPa West 14.5 km/h 24.1 km/h 66 % 0 mm 72 W/m2
19:39 16.3 °C 10.2 °C 1019.5 hPa West 14.5 km/h 24.1 km/h 67 % 0 mm 54 W/m2
19:44 16.2 °C 10.1 °C 1019.5 hPa West 12.9 km/h 22.5 km/h 67 % 0 mm 46 W/m2
19:49 16.1 °C 9.9 °C 1019.5 hPa WNW 12.9 km/h 22.5 km/h 67 % 0 mm 40 W/m2
19:54 16.1 °C 9.9 °C 1019.5 hPa WNW 14.5 km/h 24.1 km/h 67 % 0 mm 39 W/m2
19:59 16 °C 9.9 °C 1019.5 hPa West 14.5 km/h 24.1 km/h 67 % 0 mm 39 W/m2
20:04 15.9 °C 10 °C 1019.5 hPa West 12.9 km/h 22.5 km/h 68 % 0 mm 33 W/m2
20:09 15.9 °C 10 °C 1019.9 hPa West 9.7 km/h 16.1 km/h 68 % 0 mm 33 W/m2
20:14 15.8 °C 9.9 °C 1019.9 hPa West 9.7 km/h 20.9 km/h 68 % 0 mm 32 W/m2
20:19 15.8 °C 9.9 °C 1019.5 hPa West 9.7 km/h 20.9 km/h 68 % 0 mm 25 W/m2
20:24 15.7 °C 9.8 °C 1019.5 hPa West 12.9 km/h 20.9 km/h 68 % 0 mm 19 W/m2
20:29 15.7 °C 9.8 °C 1019.5 hPa WNW 12.9 km/h 20.9 km/h 68 % 0 mm 19 W/m2
20:35 15.6 °C 9.9 °C 1019.9 hPa West 11.3 km/h 24.1 km/h 69 % 0 mm 12 W/m2
20:39 15.6 °C 9.9 °C 1019.9 hPa West 11.3 km/h 24.1 km/h 69 % 0 mm 11 W/m2
20:45 15.4 °C 9.7 °C 1019.9 hPa West 9.7 km/h 17.7 km/h 69 % 0 mm 9 W/m2
20:50 15.4 °C 9.9 °C 1019.9 hPa West 11.3 km/h 20.9 km/h 70 % 0 mm 7 W/m2
20:55 15.3 °C 9.8 °C 1020.2 hPa West 14.5 km/h 22.5 km/h 70 % 0 mm 0 W/m2
21:00 15.3 °C 9.8 °C 1020.2 hPa West 11.3 km/h 22.5 km/h 70 % 0 mm 0 W/m2
21:05 15.2 °C 10 °C 1020.2 hPa WNW 11.3 km/h 20.9 km/h 71 % 0 mm 0 W/m2
21:06 15.2 °C 10 °C 1020.2 hPa WNW 11.3 km/h 20.9 km/h 71 % 0 mm 0 W/m2
21:11 15.2 °C 10 °C 1020.2 hPa WNW 12.9 km/h 24.1 km/h 71 % 0 mm 0 W/m2
21:16 15.1 °C 9.9 °C 1020.2 hPa WNW 12.9 km/h 25.7 km/h 71 % 0 mm 0 W/m2
21:21 15 °C 10 °C 1020.2 hPa West 12.9 km/h 25.7 km/h 72 % 0 mm 0 W/m2
21:26 15 °C 10.2 °C 1020.2 hPa West 9.7 km/h 19.3 km/h 73 % 0 mm 0 W/m2
21:31 14.9 °C 10.5 °C 1020.2 hPa WNW 8 km/h 14.5 km/h 75 % 0 mm 0 W/m2
21:36 14.8 °C 10.6 °C 1020.2 hPa WNW 8 km/h 14.5 km/h 76 % 0 mm 0 W/m2
21:41 14.7 °C 10.5 °C 1020.2 hPa West 8 km/h 14.5 km/h 76 % 0 mm 0 W/m2
21:46 14.6 °C 10.6 °C 1020.2 hPa West 6.4 km/h 11.3 km/h 77 % 0 mm 0 W/m2
21:51 14.4 °C 10.4 °C 1020.2 hPa WNW 6.4 km/h 12.9 km/h 77 % 0 mm 0 W/m2
21:56 14.3 °C 10.3 °C 1020.2 hPa WNW 8 km/h 12.9 km/h 77 % 0 mm 0 W/m2
22:01 14.2 °C 10.4 °C 1020.2 hPa West 9.7 km/h 12.9 km/h 78 % 0 mm 0 W/m2
22:06 14.2 °C 10.4 °C 1020.2 hPa West 8 km/h 12.9 km/h 78 % 0 mm 0 W/m2
22:11 14.1 °C 10.3 °C 1020.2 hPa West 8 km/h 12.9 km/h 78 % 0 mm 0 W/m2
22:16 14.1 °C 10.3 °C 1020.2 hPa West 8 km/h 12.9 km/h 78 % 0 mm 0 W/m2
22:21 14 °C 10.4 °C 1020.2 hPa West 8 km/h 12.9 km/h 79 % 0 mm 0 W/m2
22:26 13.9 °C 10.3 °C 1020.2 hPa West 6.4 km/h 11.3 km/h 79 % 0 mm 0 W/m2
22:31 13.9 °C 10.3 °C 1020.2 hPa WSW 6.4 km/h 12.9 km/h 79 % 0 mm 0 W/m2
22:36 13.9 °C 10.5 °C 1020.2 hPa WSW 8 km/h 12.9 km/h 80 % 0 mm 0 W/m2
22:41 13.8 °C 10.6 °C 1020.2 hPa West 6.4 km/h 12.9 km/h 81 % 0 mm 0 W/m2
22:46 13.8 °C 10.6 °C 1020.2 hPa West 6.4 km/h 11.3 km/h 81 % 0 mm 0 W/m2
22:51 13.7 °C 10.7 °C 1020.2 hPa West 6.4 km/h 11.3 km/h 82 % 0 mm 0 W/m2
22:56 13.6 °C 10.6 °C 1020.2 hPa West 6.4 km/h 11.3 km/h 82 % 0 mm 0 W/m2
23:01 13.5 °C 10.5 °C 1020.5 hPa West 4.8 km/h 11.3 km/h 82 % 0 mm 0 W/m2
23:06 13.5 °C 10.8 °C 1020.2 hPa West 1.6 km/h 9.7 km/h 84 % 0 mm 0 W/m2
23:11 13.4 °C 10.8 °C 1020.2 hPa Calm   3.2 km/h 84 % 0 mm 0 W/m2
23:13 13.4 °C 10.8 °C 1020.2 hPa Calm   3.2 km/h 84 % 0 mm 0 W/m2
23:18 13.4 °C 10.8 °C 1020.5 hPa Calm   4.8 km/h 84 % 0 mm 0 W/m2
23:23 13.4 °C 10.8 °C 1020.2 hPa West 1.6 km/h 8 km/h 84 % 0 mm 0 W/m2
23:28 13.3 °C 10.7 °C 1020.2 hPa West 4.8 km/h 9.7 km/h 84 % 0 mm 0 W/m2
23:33 13.3 °C 10.7 °C 1020.2 hPa West 4.8 km/h 9.7 km/h 84 % 0 mm 0 W/m2
23:38 13.3 °C 10.8 °C 1020.2 hPa West 3.2 km/h 8 km/h 85 % 0 mm 0 W/m2
23:43 13.3 °C 10.8 °C 1020.2 hPa West 1.6 km/h 8 km/h 85 % 0 mm 0 W/m2
23:48 13.3 °C 10.8 °C 1020.2 hPa West 1.6 km/h 6.4 km/h 85 % 0 mm 0 W/m2
23:53 13.3 °C 10.8 °C 1020.2 hPa Calm   4.8 km/h 85 % 0 mm 0 W/m2
23:58 13.3 °C 10.8 °C 1020.2 hPa Calm   4.8 km/h 85 % 0 mm 0 W/m2
Delerius-Weather
Compliments of Weather Underground - 2.25 mb

Data updates at regular intervals.